createdAt,value
2018-04-01T00:01:25.514Z,94.60
2018-04-01T00:06:56.898Z,93.80
2018-04-01T00:15:23.738Z,93.60
2018-04-01T00:17:52.029Z,93.20
2018-04-01T00:20:21.324Z,93.10
2018-04-01T00:22:50.437Z,93.40
2018-04-01T00:25:25.656Z,93.60
2018-04-01T00:27:54.939Z,93.60
2018-04-01T00:30:23.394Z,94.00
2018-04-01T00:32:51.746Z,93.90
2018-04-01T00:35:20.508Z,93.30
2018-04-01T00:37:50.842Z,92.70
2018-04-01T00:40:21.540Z,92.60
2018-04-01T00:42:50.063Z,92.60
2018-04-01T00:45:19.434Z,92.90
2018-04-01T00:47:49.423Z,92.90
2018-04-01T00:50:17.883Z,92.20
2018-04-01T00:52:46.547Z,92.60
2018-04-01T00:55:15.873Z,92.70
2018-04-01T00:57:44.958Z,92.70
2018-04-01T01:00:14.361Z,92.00
2018-04-01T01:02:42.860Z,91.90
2018-04-01T01:05:11.286Z,91.80
2018-04-01T01:07:39.635Z,91.70
2018-04-01T01:10:08.118Z,91.30
2018-04-01T01:12:37.422Z,90.90
2018-04-01T01:15:05.872Z,90.70
2018-04-01T01:17:34.768Z,90.00
2018-04-01T01:20:06.576Z,89.50
2018-04-01T01:22:37.589Z,89.00
2018-04-01T01:25:06.887Z,89.10
2018-04-01T01:27:36.284Z,89.10
2018-04-01T01:30:04.782Z,89.90
2018-04-01T01:32:33.803Z,90.50
2018-04-01T01:35:02.753Z,91.40
2018-04-01T01:37:36.361Z,92.00
2018-04-01T01:40:05.631Z,92.50
2018-04-01T01:42:42.064Z,92.90
2018-04-01T01:45:11.618Z,93.20
2018-04-01T01:47:40.195Z,93.20
2018-04-01T01:50:12.965Z,93.50
2018-04-01T01:52:41.467Z,93.40
2018-04-01T01:55:30.607Z,93.20
2018-04-01T01:58:00.041Z,93.50
2018-04-01T02:00:29.251Z,93.50
2018-04-01T02:03:02.037Z,93.50
2018-04-01T02:05:32.202Z,93.40
2018-04-01T02:08:01.748Z,93.20
2018-04-01T02:10:30.545Z,93.00
2018-04-01T02:12:59.075Z,92.80
2018-04-01T02:15:27.940Z,92.20
2018-04-01T02:18:12.998Z,91.50
2018-04-01T02:20:44.558Z,90.50
2018-04-01T02:23:12.976Z,89.50
2018-04-01T02:25:42.134Z,88.20
2018-04-01T02:28:11.537Z,88.00
2018-04-01T02:30:41.080Z,88.10
2018-04-01T02:33:09.501Z,86.50
2018-04-01T02:35:40.362Z,84.90
2018-04-01T02:38:12.190Z,84.80
2018-04-01T02:40:41.094Z,84.80
2018-04-01T02:43:23.078Z,85.30
2018-04-01T02:45:53.508Z,84.30
2018-04-01T02:48:25.752Z,82.50
2018-04-01T02:50:55.031Z,83.90
2018-04-01T02:53:25.111Z,82.70
2018-04-01T02:55:53.556Z,82.60
2018-04-01T02:58:23.111Z,82.60
2018-04-01T03:00:51.582Z,80.30
2018-04-01T03:03:20.202Z,80.20
2018-04-01T03:05:48.540Z,80.40
2018-04-01T03:08:17.182Z,78.80
2018-04-01T03:10:45.567Z,78.10
2018-04-01T03:13:13.886Z,78.80
2018-04-01T03:15:42.434Z,76.10
2018-04-01T03:18:11.834Z,77.10
2018-04-01T03:20:40.878Z,76.80
2018-04-01T03:23:09.425Z,77.20
2018-04-01T03:25:38.518Z,77.80
2018-04-01T03:28:08.656Z,77.70
2018-04-01T03:30:37.093Z,77.60
2018-04-01T03:33:05.435Z,77.90
2018-04-01T03:35:33.740Z,78.20
2018-04-01T03:38:02.107Z,77.70
2018-04-01T03:40:36.210Z,78.00
2018-04-01T03:43:04.758Z,78.20
2018-04-01T03:45:34.039Z,77.60
2018-04-01T03:48:03.755Z,77.70
2018-04-01T03:50:34.326Z,77.70
2018-04-01T03:53:02.679Z,77.10
2018-04-01T03:55:31.904Z,75.90
2018-04-01T03:58:00.437Z,75.90
2018-04-01T04:00:28.863Z,73.90
2018-04-01T04:02:58.333Z,73.00
2018-04-01T04:05:26.932Z,72.70
2018-04-01T04:07:56.102Z,71.40
2018-04-01T04:10:26.680Z,71.40
2018-04-01T04:12:55.938Z,72.20
2018-04-01T04:15:24.971Z,72.20
2018-04-01T04:17:53.299Z,73.20
2018-04-01T04:20:21.712Z,73.00
2018-04-01T04:22:50.930Z,71.80
2018-04-01T04:25:21.369Z,71.80
2018-04-01T04:28:05.032Z,72.30
2018-04-01T04:30:33.741Z,73.00
2018-04-01T04:33:02.373Z,72.80
2018-04-01T04:35:30.850Z,74.00
2018-04-01T04:37:59.430Z,74.00
2018-04-01T04:40:28.747Z,74.40
2018-04-01T04:42:58.448Z,73.80
2018-04-01T04:45:28.153Z,74.80
2018-04-01T04:47:58.460Z,74.80
2018-04-01T04:50:28.881Z,76.80
2018-04-01T04:52:57.309Z,76.70
2018-04-01T04:55:25.918Z,79.20
2018-04-01T04:57:54.263Z,79.70
2018-04-01T05:00:22.997Z,80.70
2018-04-01T05:02:52.170Z,83.40
2018-04-01T05:05:20.627Z,82.60
2018-04-01T05:07:49.218Z,82.60
2018-04-01T05:10:17.880Z,82.90
2018-04-01T05:12:47.346Z,83.40
2018-04-01T05:15:15.831Z,84.20
2018-04-01T05:17:44.581Z,84.40
2018-04-01T05:20:13.767Z,84.60
2018-04-01T05:22:42.216Z,85.30
2018-04-01T05:25:11.336Z,85.30
2018-04-01T05:27:41.736Z,85.20
2018-04-01T05:30:10.260Z,86.10
2018-04-01T05:32:38.683Z,86.30
2018-04-01T05:35:07.033Z,85.80
2018-04-01T05:37:36.819Z,84.70
2018-04-01T05:40:05.512Z,85.40
2018-04-01T05:49:20.699Z,84.30
2018-04-01T05:54:46.854Z,86.20
2018-04-01T05:57:16.139Z,86.40
2018-04-01T05:59:44.663Z,86.40
2018-04-01T06:02:13.544Z,87.30
2018-04-01T06:04:41.902Z,87.90
2018-04-01T06:07:11.040Z,87.70
2018-04-01T06:09:39.380Z,87.70
2018-04-01T06:12:12.133Z,85.50
2018-04-01T06:14:45.980Z,85.60
2018-04-01T06:17:16.231Z,85.10
2018-04-01T06:19:47.595Z,83.90
2018-04-01T06:22:18.201Z,82.40
2018-04-01T06:24:46.764Z,82.40
2018-04-01T06:27:24.006Z,82.80
2018-04-01T06:29:54.079Z,81.60
2018-04-01T06:32:22.462Z,81.50
2018-04-01T06:34:50.916Z,80.60
2018-04-01T06:37:19.584Z,80.50
2018-04-01T06:39:48.095Z,81.60
2018-04-01T06:42:17.237Z,80.10
2018-04-01T06:44:46.642Z,80.10
2018-04-01T06:47:15.784Z,80.00
2018-04-01T06:49:44.185Z,81.40
2018-04-01T06:52:12.980Z,82.50
2018-04-01T06:54:42.555Z,80.20
2018-04-01T06:57:10.857Z,78.20
2018-04-01T06:59:39.279Z,80.50
2018-04-01T07:02:07.594Z,78.80
2018-04-01T07:04:36.926Z,75.60
2018-04-01T07:07:05.312Z,75.60
2018-04-01T07:09:33.906Z,76.90
2018-04-01T07:12:02.273Z,78.10
2018-04-01T07:14:31.693Z,74.10
2018-04-01T07:17:00.239Z,74.00
2018-04-01T07:19:29.943Z,75.60
2018-04-01T07:21:59.142Z,73.80
2018-04-01T07:24:28.700Z,73.80
2018-04-01T07:26:57.799Z,73.70
2018-04-01T07:29:26.875Z,75.10
2018-04-01T07:31:55.321Z,75.30
2018-04-01T07:34:24.126Z,73.90
2018-04-01T07:36:53.733Z,75.60
2018-04-01T07:39:22.542Z,74.80
2018-04-01T07:41:51.134Z,74.50
2018-04-01T07:44:19.524Z,75.30
2018-04-01T07:46:48.090Z,74.30
2018-04-01T07:49:18.007Z,70.70
2018-04-01T07:51:46.690Z,69.40
2018-04-01T07:54:15.789Z,68.70
2018-04-01T07:56:44.638Z,68.30
2018-04-01T07:59:14.146Z,66.90
2018-04-01T08:01:43.320Z,64.50
2018-04-01T08:04:11.829Z,64.50
2018-04-01T08:06:41.110Z,65.50
2018-04-01T08:09:09.770Z,65.40
2018-04-01T08:11:38.115Z,66.80
2018-04-01T08:14:06.736Z,67.70
2018-04-01T08:16:35.113Z,65.80
2018-04-01T08:19:03.510Z,64.40
2018-04-01T08:21:32.155Z,61.20
2018-04-01T08:24:00.698Z,58.50
2018-04-01T08:26:29.132Z,49.40
2018-04-01T08:28:57.719Z,51.30
2018-04-01T08:31:26.251Z,44.60
2018-04-01T08:33:55.008Z,43.60
2018-04-01T08:36:23.627Z,44.70
2018-04-01T08:38:52.733Z,41.10
2018-04-01T08:41:22.169Z,40.30
2018-04-01T08:43:50.875Z,41.90
2018-04-01T08:46:19.442Z,44.90
2018-04-01T08:48:48.190Z,53.10
2018-04-01T08:51:17.847Z,43.90
2018-04-01T08:53:46.618Z,43.90
2018-04-01T08:56:15.220Z,49.00
2018-04-01T08:58:43.741Z,47.80
2018-04-01T09:01:13.092Z,45.30
2018-04-01T09:03:41.532Z,45.30
2018-04-01T09:06:10.668Z,35.60
2018-04-01T09:08:39.038Z,31.60
2018-04-01T09:11:07.416Z,37.00
2018-04-01T09:13:36.529Z,40.40
2018-04-01T09:16:05.062Z,42.80
2018-04-01T09:18:34.469Z,45.10
2018-04-01T09:21:02.946Z,45.10
2018-04-01T09:23:31.332Z,46.90
2018-04-01T09:25:59.687Z,46.00
2018-04-01T09:28:29.761Z,42.20
2018-04-01T09:30:58.114Z,42.10
2018-04-01T09:33:26.487Z,41.00
2018-04-01T09:35:55.102Z,40.00
2018-04-01T09:38:23.481Z,35.10
2018-04-01T09:40:51.799Z,31.10
2018-04-01T09:43:21.177Z,31.30
2018-04-01T09:45:49.494Z,36.40
2018-04-01T09:48:17.906Z,45.30
2018-04-01T09:50:47.043Z,44.10
2018-04-01T09:53:15.388Z,43.90
2018-04-01T09:55:44.548Z,46.10
2018-04-01T09:58:12.957Z,46.20
2018-04-01T10:00:58.910Z,39.70
2018-04-01T10:03:29.076Z,31.30
2018-04-01T10:05:58.559Z,32.10
2018-04-01T10:08:29.530Z,32.40
2018-04-01T10:10:59.109Z,32.40
2018-04-01T10:13:29.582Z,46.10
2018-04-01T10:15:59.896Z,45.80
2018-04-01T10:18:29.706Z,46.10
2018-04-01T10:20:59.710Z,48.30
2018-04-01T10:23:29.878Z,50.70
2018-04-01T10:25:59.665Z,40.60
2018-04-01T10:28:29.173Z,31.00
2018-04-01T10:30:59.090Z,31.80
2018-04-01T10:33:28.755Z,30.00
2018-04-01T10:36:00.014Z,30.60
2018-04-01T10:38:29.485Z,30.60
2018-04-01T10:40:58.965Z,36.00
2018-04-01T10:43:28.657Z,41.00
2018-04-01T10:45:58.778Z,34.50
2018-04-01T10:48:29.299Z,31.30
2018-04-01T10:50:59.268Z,36.20
2018-04-01T10:53:29.222Z,36.10
2018-04-01T10:55:58.151Z,38.80
2018-04-01T10:58:26.563Z,38.90
2018-04-01T11:00:55.097Z,43.10
2018-04-01T11:03:23.676Z,45.70
2018-04-01T11:05:52.231Z,45.50
2018-04-01T11:08:20.723Z,40.80
2018-04-01T11:10:50.052Z,44.30
2018-04-01T11:13:18.602Z,44.30
2018-04-01T11:15:47.023Z,44.10
2018-04-01T11:18:15.494Z,46.20
2018-04-01T11:20:44.054Z,47.90
2018-04-01T11:23:13.389Z,47.90
2018-04-01T11:25:41.732Z,48.00
2018-04-01T11:28:11.032Z,46.70
2018-04-01T11:30:40.217Z,37.70
2018-04-01T11:33:08.570Z,37.60
2018-04-01T11:35:36.997Z,32.30
2018-04-01T11:38:06.354Z,38.40
2018-04-01T11:40:34.804Z,38.60
2018-04-01T11:43:03.325Z,48.20
2018-04-01T11:45:32.855Z,55.80
2018-04-01T11:48:01.259Z,64.00
2018-04-01T11:50:30.543Z,67.70
2018-04-01T11:52:59.162Z,69.40
2018-04-01T11:55:36.438Z,70.80
2018-04-01T12:07:35.911Z,64.80
2018-04-01T12:10:04.376Z,57.80
2018-04-01T12:12:35.766Z,56.80
2018-04-01T12:15:05.267Z,60.40
2018-04-01T12:17:33.780Z,62.50
2018-04-01T12:20:03.858Z,61.00
2018-04-01T12:22:33.772Z,61.00
2018-04-01T12:25:02.305Z,62.50
2018-04-01T12:27:30.682Z,62.80
2018-04-01T12:29:59.322Z,57.70
2018-04-01T12:32:28.914Z,61.10
2018-04-01T12:34:57.582Z,58.40
2018-04-01T12:37:27.218Z,48.60
2018-04-01T12:39:56.338Z,48.60
2018-04-01T12:42:25.007Z,48.50
2018-04-01T12:44:53.590Z,39.60
2018-04-01T12:47:21.928Z,31.80
2018-04-01T12:49:51.038Z,30.50
2018-04-01T12:52:20.259Z,32.70
2018-04-01T12:54:48.796Z,32.50
2018-04-01T12:57:17.631Z,30.30
2018-04-01T12:59:46.090Z,40.40
2018-04-01T13:02:14.573Z,31.30
2018-04-01T13:04:43.769Z,32.90
2018-04-01T13:07:12.988Z,30.50
2018-04-01T13:09:41.302Z,30.50
2018-04-01T13:12:10.154Z,32.70
2018-04-01T13:14:38.575Z,37.30
2018-04-01T13:17:07.728Z,37.10
2018-04-01T13:19:36.295Z,37.70
2018-04-01T13:22:04.880Z,38.90
2018-04-01T13:24:34.799Z,37.10
2018-04-01T13:27:03.911Z,41.60
2018-04-01T13:29:32.355Z,41.70
2018-04-01T13:32:00.883Z,40.00
2018-04-01T13:34:32.649Z,42.20
2018-04-01T13:37:02.461Z,41.40
2018-04-01T13:39:31.399Z,43.20
2018-04-01T13:42:00.759Z,42.40
2018-04-01T13:44:29.236Z,42.30
2018-04-01T13:46:57.718Z,37.70
2018-04-01T13:49:26.407Z,36.50
2018-04-01T13:51:54.826Z,36.10
2018-04-01T13:54:23.194Z,35.80
2018-04-01T13:56:51.834Z,35.10
2018-04-01T13:59:20.438Z,37.20
2018-04-01T14:01:48.800Z,35.40
2018-04-01T14:04:17.150Z,37.70
2018-04-01T14:06:46.594Z,39.30
2018-04-01T14:09:15.189Z,39.30
2018-04-01T14:11:44.148Z,38.80
2018-04-01T14:17:13.808Z,36.70
2018-04-01T14:19:42.512Z,37.50
2018-04-01T14:22:11.051Z,39.40
2018-04-01T14:24:40.811Z,38.90
2018-04-01T14:27:10.180Z,38.90
2018-04-01T14:29:40.021Z,40.70
2018-04-01T14:32:08.886Z,40.40
2018-04-01T14:34:41.958Z,41.00
2018-04-01T14:37:11.743Z,40.00
2018-04-01T14:39:41.302Z,39.70
2018-04-01T14:42:10.236Z,39.80
2018-04-01T14:44:40.051Z,38.30
2018-04-01T14:47:11.128Z,39.10
2018-04-01T14:49:39.978Z,37.80
2018-04-01T14:52:09.071Z,38.80
2018-04-01T14:54:38.706Z,37.80
2018-04-01T14:57:08.848Z,37.90
2018-04-01T14:59:38.002Z,37.90
2018-04-01T15:02:07.915Z,36.20
2018-04-01T15:04:36.805Z,36.30
2018-04-01T15:07:05.803Z,35.30
2018-04-01T15:09:35.000Z,33.60
2018-04-01T15:12:04.021Z,34.80
2018-04-01T15:14:32.987Z,34.50
2018-04-01T15:17:02.278Z,37.00
2018-04-01T15:19:31.306Z,34.80
2018-04-01T15:22:01.135Z,34.00
2018-04-01T15:24:30.828Z,35.10
2018-04-01T15:26:59.821Z,35.20
2018-04-01T15:29:28.685Z,35.70
2018-04-01T15:31:57.610Z,34.60
2018-04-01T15:34:26.890Z,35.00
2018-04-01T15:36:57.672Z,36.60
2018-04-01T15:39:26.633Z,35.00
2018-04-01T15:42:01.565Z,33.40
2018-04-01T15:44:31.375Z,30.90
2018-04-01T15:47:00.281Z,32.00
2018-04-01T15:49:44.724Z,30.30
2018-04-01T15:52:32.957Z,30.00
2018-04-01T15:55:01.946Z,30.20
2018-04-01T15:57:31.348Z,30.10
2018-04-01T16:00:01.174Z,31.20
2018-04-01T16:02:30.376Z,31.10
2018-04-01T16:04:59.249Z,33.20
2018-04-01T16:07:28.298Z,33.50
2018-04-01T16:09:57.169Z,32.70
2018-04-01T16:12:27.061Z,33.50
2018-04-01T16:14:55.982Z,33.50
2018-04-01T16:17:24.973Z,33.20
2018-04-01T16:19:55.156Z,33.10
2018-04-01T16:22:25.503Z,32.60
2018-04-01T16:24:54.518Z,32.50
2018-04-01T16:27:24.184Z,34.50
2018-04-01T16:29:53.297Z,34.30
2018-04-01T16:32:24.063Z,37.60
2018-04-01T16:34:53.112Z,38.50
2018-04-01T16:37:22.878Z,37.10
2018-04-01T16:39:52.851Z,37.50
2018-04-01T16:42:21.673Z,37.20
2018-04-01T16:44:52.269Z,35.10
2018-04-01T16:47:24.357Z,35.00
2018-04-01T16:49:54.557Z,36.50
2018-04-01T16:52:24.583Z,34.00
2018-04-01T16:54:53.720Z,34.00
2018-04-01T16:57:33.170Z,36.30
2018-04-01T17:00:02.320Z,37.20
2018-04-01T17:02:34.131Z,36.50
2018-04-01T17:05:03.172Z,36.40
2018-04-01T17:07:32.127Z,37.70
2018-04-01T17:10:04.123Z,38.40
2018-04-01T17:12:35.005Z,38.10
2018-04-01T17:15:05.121Z,38.00
2018-04-01T17:17:34.852Z,37.80
2018-04-01T17:20:04.957Z,38.60
2018-04-01T17:22:33.924Z,40.60
2018-04-01T17:25:05.671Z,43.50
2018-04-01T17:27:34.867Z,43.40
2018-04-01T17:30:06.314Z,43.80
2018-04-01T17:32:35.560Z,43.80
2018-04-01T17:35:04.831Z,42.90
2018-04-01T17:37:35.165Z,42.10
2018-04-01T17:40:05.065Z,40.60
2018-04-01T17:42:34.356Z,40.60
2018-04-01T17:45:03.277Z,40.20
2018-04-01T17:47:32.553Z,41.30
2018-04-01T17:50:02.062Z,40.60
2018-04-01T17:52:31.353Z,41.40
2018-04-01T17:55:00.448Z,45.40
2018-04-01T17:57:29.542Z,49.20
2018-04-01T17:59:58.469Z,48.20
2018-04-01T18:02:28.473Z,53.10
2018-04-01T18:04:57.386Z,53.10
2018-04-01T18:07:26.678Z,57.60
2018-04-01T18:09:56.968Z,58.90
2018-04-01T18:12:27.360Z,58.80
2018-04-01T18:14:56.397Z,59.90
2018-04-01T18:17:26.275Z,58.10
2018-04-01T18:19:55.450Z,57.10
2018-04-01T18:22:24.606Z,57.70
2018-04-01T18:24:53.643Z,57.70
2018-04-01T18:27:22.905Z,60.40
2018-04-01T18:29:53.242Z,60.70
2018-04-01T18:32:22.128Z,61.30
2018-04-01T18:34:53.009Z,60.50
2018-04-01T18:37:22.269Z,60.50
2018-04-01T18:39:51.552Z,60.60
2018-04-01T18:42:20.766Z,60.50
2018-04-01T18:44:49.895Z,58.20
2018-04-01T18:47:19.045Z,56.20
2018-04-01T18:49:48.363Z,55.70
2018-04-01T18:52:18.299Z,56.20
2018-04-01T18:54:47.685Z,56.20
2018-04-01T18:57:16.874Z,56.20
2018-04-01T18:59:46.281Z,56.10
2018-04-01T19:02:16.384Z,56.60
2018-04-01T19:04:45.196Z,57.00
2018-04-01T19:07:14.347Z,58.30
2018-04-01T19:09:44.193Z,58.20
2018-04-01T19:12:14.641Z,59.40
2018-04-01T19:14:45.146Z,60.70
2018-04-01T19:17:15.275Z,60.70
2018-04-01T19:19:46.419Z,59.90
2018-04-01T19:22:16.862Z,59.70
2018-04-01T19:24:47.932Z,60.20
2018-04-01T19:27:18.147Z,60.20
2018-04-01T19:29:48.540Z,60.30
2018-04-01T19:32:19.819Z,60.70
2018-04-01T19:34:49.909Z,60.90
2018-04-01T19:37:21.041Z,61.10
2018-04-01T19:39:52.530Z,61.30
2018-04-01T19:42:23.946Z,61.70
2018-04-01T19:44:55.097Z,61.40
2018-04-01T19:47:27.173Z,61.50
2018-04-01T19:49:57.486Z,61.60
2018-04-01T19:52:28.629Z,60.80
2018-04-01T19:54:58.875Z,60.60
2018-04-01T19:57:29.554Z,60.50
2018-04-01T19:59:59.907Z,60.40
2018-04-01T20:02:30.567Z,60.30
2018-04-01T20:05:01.316Z,61.90
2018-04-01T20:07:31.914Z,61.80
2018-04-01T20:10:02.346Z,62.40
2018-04-01T20:12:34.331Z,63.20
2018-04-01T20:15:04.624Z,63.20
2018-04-01T20:17:35.200Z,63.70
2018-04-01T20:20:08.047Z,65.90
2018-04-01T20:22:39.947Z,67.10
2018-04-01T20:25:11.321Z,67.10
2018-04-01T20:27:41.580Z,67.80
2018-04-01T20:30:12.620Z,69.20
2018-04-01T20:32:42.937Z,69.20
2018-04-01T20:35:13.162Z,70.10
2018-04-01T20:37:43.804Z,70.20
2018-04-01T20:40:14.026Z,70.80
2018-04-01T20:42:44.992Z,71.30
2018-04-01T20:45:15.227Z,71.30
2018-04-01T20:47:45.542Z,70.70
2018-04-01T20:50:17.357Z,70.20
2018-04-01T20:52:49.639Z,69.80
2018-04-01T20:55:23.795Z,69.20
2018-04-01T20:57:54.190Z,69.10
2018-04-01T21:00:26.340Z,68.00
2018-04-01T21:02:56.578Z,67.40
2018-04-01T21:05:28.023Z,67.00
2018-04-01T21:07:59.056Z,66.10
2018-04-01T21:10:32.973Z,66.10
2018-04-01T21:13:13.897Z,65.50
2018-04-01T21:19:43.596Z,66.00
2018-04-01T21:25:46.948Z,65.90
2018-04-01T21:28:18.162Z,65.90
2018-04-01T21:30:48.733Z,66.10
2018-04-01T21:33:19.557Z,66.50
2018-04-01T21:35:50.370Z,66.80
2018-04-01T21:38:23.284Z,66.70
2018-04-01T21:40:54.237Z,66.90
2018-04-01T21:43:25.362Z,67.20
2018-04-01T21:45:55.925Z,67.10
2018-04-01T21:48:26.142Z,68.20
2018-04-01T22:10:18.728Z,74.20
2018-04-01T22:12:51.278Z,73.40
2018-04-01T22:15:24.246Z,75.90
2018-04-01T22:17:58.367Z,75.80
2018-04-01T22:20:30.898Z,75.60
2018-04-01T22:23:14.079Z,76.10
2018-04-01T22:25:44.349Z,78.30
2018-04-01T22:28:15.933Z,77.20
2018-04-01T22:30:56.368Z,77.10
2018-04-01T22:33:33.459Z,76.20
2018-04-01T22:36:03.120Z,76.20
2018-04-01T22:38:33.801Z,77.00
2018-04-01T22:41:04.208Z,77.40
2018-04-01T22:43:34.284Z,78.30
2018-04-01T22:46:05.945Z,77.90
2018-04-01T22:48:36.590Z,77.90
2018-04-01T22:51:06.903Z,77.50
2018-04-01T22:53:42.578Z,79.30
2018-04-01T22:56:13.100Z,79.50
2018-04-01T22:58:51.649Z,79.30
2018-04-01T23:01:21.875Z,79.20
2018-04-01T23:03:52.583Z,80.40
2018-04-01T23:06:22.427Z,80.30
2018-04-01T23:08:51.956Z,80.20
2018-04-01T23:11:25.465Z,79.80
2018-04-01T23:13:56.479Z,80.80
2018-04-01T23:17:01.931Z,80.80
2018-04-01T23:20:18.409Z,80.80
2018-04-01T23:26:20.953Z,81.30
2018-04-01T23:28:51.213Z,81.30
2018-04-01T23:31:20.866Z,82.20
2018-04-01T23:33:52.782Z,82.40
2018-04-01T23:36:22.548Z,81.40
2018-04-01T23:38:53.621Z,80.40
2018-04-01T23:41:26.528Z,79.80
2018-04-01T23:43:57.238Z,79.50
2018-04-01T23:46:29.066Z,81.40
2018-04-01T23:48:59.545Z,81.30
2018-04-01T23:51:31.948Z,80.80
2018-04-01T23:54:02.811Z,81.10
2018-04-01T23:56:33.050Z,81.60
2018-04-01T23:59:03.954Z,81.70
